sensor_id;sensor_type;location;lat;lon;timestamp;P1;durP1;ratioP1;P2;durP2;ratioP2
11078;SDS011;5592;49.234;7.268;2024-03-02T00:00:04;3.20;;;2.77;;
11078;SDS011;5592;49.234;7.268;2024-03-02T00:02:45;4.47;;;3.10;;
11078;SDS011;5592;49.234;7.268;2024-03-02T00:05:12;4.60;;;3.67;;
11078;SDS011;5592;49.234;7.268;2024-03-02T00:07:43;7.40;;;3.30;;
11078;SDS011;5592;49.234;7.268;2024-03-02T00:10:11;6.03;;;2.90;;
11078;SDS011;5592;49.234;7.268;2024-03-02T00:12:40;4.70;;;2.97;;
11078;SDS011;5592;49.234;7.268;2024-03-02T00:15:25;3.23;;;2.67;;
11078;SDS011;5592;49.234;7.268;2024-03-02T00:17:55;3.90;;;2.90;;
11078;SDS011;5592;49.234;7.268;2024-03-02T00:20:23;5.27;;;3.43;;
11078;SDS011;5592;49.234;7.268;2024-03-02T00:22:52;3.80;;;2.80;;
11078;SDS011;5592;49.234;7.268;2024-03-02T00:25:25;3.43;;;2.90;;
11078;SDS011;5592;49.234;7.268;2024-03-02T00:27:50;3.80;;;2.60;;
11078;SDS011;5592;49.234;7.268;2024-03-02T00:30:28;4.57;;;2.70;;
11078;SDS011;5592;49.234;7.268;2024-03-02T00:33:07;5.43;;;3.07;;
11078;SDS011;5592;49.234;7.268;2024-03-02T00:35:33;8.43;;;2.63;;
11078;SDS011;5592;49.234;7.268;2024-03-02T00:38:03;3.17;;;2.70;;
11078;SDS011;5592;49.234;7.268;2024-03-02T00:40:30;3.37;;;2.27;;
11078;SDS011;5592;49.234;7.268;2024-03-02T00:42:56;4.43;;;2.93;;
11078;SDS011;5592;49.234;7.268;2024-03-02T00:45:21;4.10;;;3.40;;
11078;SDS011;5592;49.234;7.268;2024-03-02T00:47:47;4.10;;;3.20;;
11078;SDS011;5592;49.234;7.268;2024-03-02T00:50:12;4.53;;;3.30;;
11078;SDS011;5592;49.234;7.268;2024-03-02T00:52:39;4.57;;;3.50;;
11078;SDS011;5592;49.234;7.268;2024-03-02T00:55:06;3.57;;;3.23;;
11078;SDS011;5592;49.234;7.268;2024-03-02T00:57:33;6.27;;;4.33;;
11078;SDS011;5592;49.234;7.268;2024-03-02T01:00:00;7.30;;;3.90;;
11078;SDS011;5592;49.234;7.268;2024-03-02T01:02:26;7.13;;;3.50;;
11078;SDS011;5592;49.234;7.268;2024-03-02T01:04:53;4.70;;;3.40;;
11078;SDS011;5592;49.234;7.268;2024-03-02T01:07:18;5.40;;;4.10;;
11078;SDS011;5592;49.234;7.268;2024-03-02T01:09:44;5.90;;;4.00;;
11078;SDS011;5592;49.234;7.268;2024-03-02T01:12:10;5.67;;;3.97;;
11078;SDS011;5592;49.234;7.268;2024-03-02T01:14:36;6.20;;;4.87;;
11078;SDS011;5592;49.234;7.268;2024-03-02T01:17:01;5.80;;;4.60;;
11078;SDS011;5592;49.234;7.268;2024-03-02T01:19:29;4.47;;;4.00;;
11078;SDS011;5592;49.234;7.268;2024-03-02T01:21:55;9.03;;;3.87;;
11078;SDS011;5592;49.234;7.268;2024-03-02T01:24:21;7.93;;;4.37;;
11078;SDS011;5592;49.234;7.268;2024-03-02T01:26:47;7.33;;;4.70;;
11078;SDS011;5592;49.234;7.268;2024-03-02T01:29:12;8.67;;;4.83;;
11078;SDS011;5592;49.234;7.268;2024-03-02T01:31:38;7.07;;;4.73;;
11078;SDS011;5592;49.234;7.268;2024-03-02T01:34:07;4.93;;;4.50;;
11078;SDS011;5592;49.234;7.268;2024-03-02T01:36:33;8.37;;;4.70;;
11078;SDS011;5592;49.234;7.268;2024-03-02T01:38:58;4.90;;;4.30;;
11078;SDS011;5592;49.234;7.268;2024-03-02T01:41:24;7.63;;;4.77;;
11078;SDS011;5592;49.234;7.268;2024-03-02T01:43:49;7.77;;;4.67;;
11078;SDS011;5592;49.234;7.268;2024-03-02T01:46:15;5.77;;;4.23;;
11078;SDS011;5592;49.234;7.268;2024-03-02T01:48:40;5.17;;;3.63;;
11078;SDS011;5592;49.234;7.268;2024-03-02T01:51:06;6.20;;;3.80;;
11078;SDS011;5592;49.234;7.268;2024-03-02T01:53:32;5.13;;;3.97;;
11078;SDS011;5592;49.234;7.268;2024-03-02T01:55:58;5.40;;;3.90;;
11078;SDS011;5592;49.234;7.268;2024-03-02T01:58:24;6.80;;;4.33;;
11078;SDS011;5592;49.234;7.268;2024-03-02T02:00:50;7.70;;;4.30;;
11078;SDS011;5592;49.234;7.268;2024-03-02T02:03:15;6.73;;;4.23;;
11078;SDS011;5592;49.234;7.268;2024-03-02T02:05:41;5.80;;;3.70;;
11078;SDS011;5592;49.234;7.268;2024-03-02T02:08:07;5.57;;;4.30;;
11078;SDS011;5592;49.234;7.268;2024-03-02T02:10:33;7.90;;;4.30;;
11078;SDS011;5592;49.234;7.268;2024-03-02T02:12:58;5.47;;;3.70;;
11078;SDS011;5592;49.234;7.268;2024-03-02T02:15:28;6.77;;;4.23;;
11078;SDS011;5592;49.234;7.268;2024-03-02T02:17:55;5.10;;;4.23;;
11078;SDS011;5592;49.234;7.268;2024-03-02T02:20:21;6.17;;;3.93;;
11078;SDS011;5592;49.234;7.268;2024-03-02T02:22:59;5.40;;;3.57;;
11078;SDS011;5592;49.234;7.268;2024-03-02T02:25:27;5.23;;;4.17;;
11078;SDS011;5592;49.234;7.268;2024-03-02T02:27:53;5.90;;;3.73;;
11078;SDS011;5592;49.234;7.268;2024-03-02T02:30:20;6.43;;;4.30;;
11078;SDS011;5592;49.234;7.268;2024-03-02T02:32:48;6.20;;;3.40;;
11078;SDS011;5592;49.234;7.268;2024-03-02T02:35:14;5.63;;;3.97;;
11078;SDS011;5592;49.234;7.268;2024-03-02T02:37:39;5.43;;;4.13;;
11078;SDS011;5592;49.234;7.268;2024-03-02T02:40:06;4.60;;;4.07;;
11078;SDS011;5592;49.234;7.268;2024-03-02T02:42:33;5.00;;;3.70;;
11078;SDS011;5592;49.234;7.268;2024-03-02T02:44:58;7.53;;;4.20;;
11078;SDS011;5592;49.234;7.268;2024-03-02T02:47:23;5.83;;;4.30;;
11078;SDS011;5592;49.234;7.268;2024-03-02T02:49:50;6.77;;;3.70;;
11078;SDS011;5592;49.234;7.268;2024-03-02T02:52:16;5.03;;;3.67;;
11078;SDS011;5592;49.234;7.268;2024-03-02T02:54:41;5.87;;;3.77;;
11078;SDS011;5592;49.234;7.268;2024-03-02T02:57:07;7.53;;;4.43;;
11078;SDS011;5592;49.234;7.268;2024-03-02T02:59:32;5.20;;;4.17;;
11078;SDS011;5592;49.234;7.268;2024-03-02T03:01:58;4.77;;;3.80;;
11078;SDS011;5592;49.234;7.268;2024-03-02T03:04:24;5.83;;;4.20;;
11078;SDS011;5592;49.234;7.268;2024-03-02T03:06:49;6.63;;;4.40;;
11078;SDS011;5592;49.234;7.268;2024-03-02T03:09:15;10.43;;;5.40;;
11078;SDS011;5592;49.234;7.268;2024-03-02T03:11:42;6.43;;;4.03;;
11078;SDS011;5592;49.234;7.268;2024-03-02T03:14:07;7.20;;;3.90;;
11078;SDS011;5592;49.234;7.268;2024-03-02T03:16:33;7.83;;;3.77;;
11078;SDS011;5592;49.234;7.268;2024-03-02T03:18:58;5.43;;;3.93;;
11078;SDS011;5592;49.234;7.268;2024-03-02T03:21:24;6.00;;;4.03;;
11078;SDS011;5592;49.234;7.268;2024-03-02T03:23:49;6.93;;;3.63;;
11078;SDS011;5592;49.234;7.268;2024-03-02T03:26:15;4.90;;;3.53;;
11078;SDS011;5592;49.234;7.268;2024-03-02T03:28:40;4.00;;;3.40;;
11078;SDS011;5592;49.234;7.268;2024-03-02T03:31:06;5.30;;;3.13;;
11078;SDS011;5592;49.234;7.268;2024-03-02T03:33:32;6.63;;;3.00;;
11078;SDS011;5592;49.234;7.268;2024-03-02T03:35:57;4.80;;;3.40;;
11078;SDS011;5592;49.234;7.268;2024-03-02T03:38:23;5.30;;;3.63;;
11078;SDS011;5592;49.234;7.268;2024-03-02T03:40:48;6.33;;;3.43;;
11078;SDS011;5592;49.234;7.268;2024-03-02T03:43:14;7.40;;;3.33;;
11078;SDS011;5592;49.234;7.268;2024-03-02T03:45:39;4.67;;;3.17;;
11078;SDS011;5592;49.234;7.268;2024-03-02T03:48:06;6.77;;;3.17;;
11078;SDS011;5592;49.234;7.268;2024-03-02T03:50:31;5.53;;;4.00;;
11078;SDS011;5592;49.234;7.268;2024-03-02T03:52:57;4.13;;;3.13;;
11078;SDS011;5592;49.234;7.268;2024-03-02T03:55:22;4.60;;;3.03;;
11078;SDS011;5592;49.234;7.268;2024-03-02T03:57:48;4.60;;;2.70;;
11078;SDS011;5592;49.234;7.268;2024-03-02T04:00:14;5.10;;;3.37;;
11078;SDS011;5592;49.234;7.268;2024-03-02T04:02:39;7.10;;;3.37;;
11078;SDS011;5592;49.234;7.268;2024-03-02T04:05:05;6.73;;;2.80;;
11078;SDS011;5592;49.234;7.268;2024-03-02T04:07:34;3.47;;;2.87;;
11078;SDS011;5592;49.234;7.268;2024-03-02T04:10:05;3.07;;;2.70;;
11078;SDS011;5592;49.234;7.268;2024-03-02T04:12:35;3.90;;;2.50;;
11078;SDS011;5592;49.234;7.268;2024-03-02T04:15:04;4.20;;;3.27;;
11078;SDS011;5592;49.234;7.268;2024-03-02T04:17:31;4.00;;;2.90;;
11078;SDS011;5592;49.234;7.268;2024-03-02T04:19:58;3.60;;;2.60;;
11078;SDS011;5592;49.234;7.268;2024-03-02T04:22:24;4.47;;;2.73;;
11078;SDS011;5592;49.234;7.268;2024-03-02T04:24:51;4.67;;;2.60;;
11078;SDS011;5592;49.234;7.268;2024-03-02T04:27:16;2.83;;;2.20;;
11078;SDS011;5592;49.234;7.268;2024-03-02T04:29:42;8.43;;;3.00;;
11078;SDS011;5592;49.234;7.268;2024-03-02T04:32:07;2.43;;;2.20;;
11078;SDS011;5592;49.234;7.268;2024-03-02T04:34:33;2.27;;;1.87;;
11078;SDS011;5592;49.234;7.268;2024-03-02T04:36:58;2.37;;;2.17;;
11078;SDS011;5592;49.234;7.268;2024-03-02T04:39:24;3.77;;;2.13;;
11078;SDS011;5592;49.234;7.268;2024-03-02T04:41:49;3.40;;;2.60;;
11078;SDS011;5592;49.234;7.268;2024-03-02T04:44:15;6.40;;;2.80;;
11078;SDS011;5592;49.234;7.268;2024-03-02T04:46:41;4.17;;;3.40;;
11078;SDS011;5592;49.234;7.268;2024-03-02T04:49:06;3.80;;;2.50;;
11078;SDS011;5592;49.234;7.268;2024-03-02T04:51:32;8.83;;;2.93;;
11078;SDS011;5592;49.234;7.268;2024-03-02T04:53:57;5.63;;;3.10;;
11078;SDS011;5592;49.234;7.268;2024-03-02T04:56:23;4.23;;;2.80;;
11078;SDS011;5592;49.234;7.268;2024-03-02T04:59:08;3.80;;;2.40;;
11078;SDS011;5592;49.234;7.268;2024-03-02T05:01:33;2.63;;;2.43;;
11078;SDS011;5592;49.234;7.268;2024-03-02T05:03:59;4.03;;;2.70;;
11078;SDS011;5592;49.234;7.268;2024-03-02T05:06:24;2.27;;;2.07;;
11078;SDS011;5592;49.234;7.268;2024-03-02T05:08:50;4.53;;;2.97;;
11078;SDS011;5592;49.234;7.268;2024-03-02T05:11:15;3.27;;;2.40;;
11078;SDS011;5592;49.234;7.268;2024-03-02T05:14:01;4.50;;;2.23;;
11078;SDS011;5592;49.234;7.268;2024-03-02T05:16:26;3.80;;;2.57;;
11078;SDS011;5592;49.234;7.268;2024-03-02T05:18:52;3.23;;;2.23;;
11078;SDS011;5592;49.234;7.268;2024-03-02T05:21:17;3.27;;;2.40;;
11078;SDS011;5592;49.234;7.268;2024-03-02T05:23:43;2.50;;;1.70;;
11078;SDS011;5592;49.234;7.268;2024-03-02T05:26:09;3.20;;;2.10;;
11078;SDS011;5592;49.234;7.268;2024-03-02T05:28:37;3.23;;;2.70;;
11078;SDS011;5592;49.234;7.268;2024-03-02T05:31:03;6.80;;;2.50;;
11078;SDS011;5592;49.234;7.268;2024-03-02T05:33:29;5.43;;;2.80;;
11078;SDS011;5592;49.234;7.268;2024-03-02T05:35:56;4.30;;;2.80;;
11078;SDS011;5592;49.234;7.268;2024-03-02T05:38:22;2.33;;;2.00;;
11078;SDS011;5592;49.234;7.268;2024-03-02T05:40:47;3.30;;;2.40;;
11078;SDS011;5592;49.234;7.268;2024-03-02T05:43:13;2.83;;;2.40;;
11078;SDS011;5592;49.234;7.268;2024-03-02T05:45:39;2.20;;;1.90;;
11078;SDS011;5592;49.234;7.268;2024-03-02T05:48:05;4.23;;;2.63;;
11078;SDS011;5592;49.234;7.268;2024-03-02T05:50:32;4.23;;;2.40;;
11078;SDS011;5592;49.234;7.268;2024-03-02T05:52:58;5.07;;;2.67;;
11078;SDS011;5592;49.234;7.268;2024-03-02T05:55:24;4.50;;;2.47;;
11078;SDS011;5592;49.234;7.268;2024-03-02T05:57:49;7.90;;;2.37;;
11078;SDS011;5592;49.234;7.268;2024-03-02T06:00:35;3.07;;;2.13;;
11078;SDS011;5592;49.234;7.268;2024-03-02T06:03:00;3.93;;;2.43;;
11078;SDS011;5592;49.234;7.268;2024-03-02T06:05:26;2.67;;;2.13;;
11078;SDS011;5592;49.234;7.268;2024-03-02T06:07:52;3.83;;;2.47;;
11078;SDS011;5592;49.234;7.268;2024-03-02T06:10:17;2.80;;;2.27;;
11078;SDS011;5592;49.234;7.268;2024-03-02T06:12:43;4.00;;;2.53;;
11078;SDS011;5592;49.234;7.268;2024-03-02T06:15:09;4.10;;;2.30;;
11078;SDS011;5592;49.234;7.268;2024-03-02T06:17:35;2.57;;;2.37;;
11078;SDS011;5592;49.234;7.268;2024-03-02T06:20:00;2.83;;;2.03;;
11078;SDS011;5592;49.234;7.268;2024-03-02T06:22:26;5.13;;;2.27;;
11078;SDS011;5592;49.234;7.268;2024-03-02T06:24:51;3.90;;;2.30;;
11078;SDS011;5592;49.234;7.268;2024-03-02T06:27:17;8.40;;;2.87;;
11078;SDS011;5592;49.234;7.268;2024-03-02T06:29:42;4.97;;;2.40;;
11078;SDS011;5592;49.234;7.268;2024-03-02T06:32:08;2.70;;;2.27;;
11078;SDS011;5592;49.234;7.268;2024-03-02T06:34:33;4.30;;;2.40;;
11078;SDS011;5592;49.234;7.268;2024-03-02T06:36:59;2.40;;;2.20;;
11078;SDS011;5592;49.234;7.268;2024-03-02T06:39:24;4.10;;;2.53;;
11078;SDS011;5592;49.234;7.268;2024-03-02T06:41:50;3.00;;;2.17;;
11078;SDS011;5592;49.234;7.268;2024-03-02T06:44:17;5.03;;;2.83;;
11078;SDS011;5592;49.234;7.268;2024-03-02T06:46:42;3.50;;;2.33;;
11078;SDS011;5592;49.234;7.268;2024-03-02T06:49:08;4.17;;;2.50;;
11078;SDS011;5592;49.234;7.268;2024-03-02T06:51:35;2.80;;;2.00;;
11078;SDS011;5592;49.234;7.268;2024-03-02T06:54:01;3.90;;;3.50;;
11078;SDS011;5592;49.234;7.268;2024-03-02T06:56:26;5.17;;;3.40;;
11078;SDS011;5592;49.234;7.268;2024-03-02T06:58:52;5.53;;;4.07;;
11078;SDS011;5592;49.234;7.268;2024-03-02T07:01:17;5.67;;;4.13;;
11078;SDS011;5592;49.234;7.268;2024-03-02T07:03:43;7.70;;;4.13;;
11078;SDS011;5592;49.234;7.268;2024-03-02T07:06:09;5.30;;;3.40;;
11078;SDS011;5592;49.234;7.268;2024-03-02T07:08:34;5.67;;;2.80;;
11078;SDS011;5592;49.234;7.268;2024-03-02T07:11:00;3.00;;;2.27;;
11078;SDS011;5592;49.234;7.268;2024-03-02T07:13:25;2.97;;;2.10;;
11078;SDS011;5592;49.234;7.268;2024-03-02T07:15:52;2.30;;;2.10;;
11078;SDS011;5592;49.234;7.268;2024-03-02T07:18:36;2.97;;;2.40;;
11078;SDS011;5592;49.234;7.268;2024-03-02T07:21:10;4.47;;;2.27;;
11078;SDS011;5592;49.234;7.268;2024-03-02T07:23:35;4.03;;;2.60;;
11078;SDS011;5592;49.234;7.268;2024-03-02T07:26:01;2.97;;;2.20;;
11078;SDS011;5592;49.234;7.268;2024-03-02T07:28:28;4.50;;;2.77;;
11078;SDS011;5592;49.234;7.268;2024-03-02T07:31:03;4.13;;;2.63;;
11078;SDS011;5592;49.234;7.268;2024-03-02T07:33:30;2.53;;;2.13;;
11078;SDS011;5592;49.234;7.268;2024-03-02T07:35:56;6.03;;;2.23;;
11078;SDS011;5592;49.234;7.268;2024-03-02T07:38:22;2.50;;;2.30;;
11078;SDS011;5592;49.234;7.268;2024-03-02T07:40:51;3.13;;;1.73;;
11078;SDS011;5592;49.234;7.268;2024-03-02T07:43:17;2.40;;;2.07;;
11078;SDS011;5592;49.234;7.268;2024-03-02T07:45:43;3.70;;;2.20;;
11078;SDS011;5592;49.234;7.268;2024-03-02T07:48:08;3.80;;;2.23;;
11078;SDS011;5592;49.234;7.268;2024-03-02T07:50:34;3.00;;;2.00;;
11078;SDS011;5592;49.234;7.268;2024-03-02T07:53:03;3.60;;;2.23;;
11078;SDS011;5592;49.234;7.268;2024-03-02T07:55:29;5.07;;;2.47;;
11078;SDS011;5592;49.234;7.268;2024-03-02T07:57:55;2.93;;;2.40;;
11078;SDS011;5592;49.234;7.268;2024-03-02T08:00:21;6.80;;;2.90;;
11078;SDS011;5592;49.234;7.268;2024-03-02T08:02:51;2.53;;;2.00;;
11078;SDS011;5592;49.234;7.268;2024-03-02T08:05:17;4.20;;;2.40;;
11078;SDS011;5592;49.234;7.268;2024-03-02T08:07:44;2.80;;;2.13;;
11078;SDS011;5592;49.234;7.268;2024-03-02T08:10:10;2.40;;;2.20;;
11078;SDS011;5592;49.234;7.268;2024-03-02T08:12:36;3.50;;;2.37;;
11078;SDS011;5592;49.234;7.268;2024-03-02T08:15:02;3.47;;;2.37;;
11078;SDS011;5592;49.234;7.268;2024-03-02T08:17:27;6.60;;;3.00;;
11078;SDS011;5592;49.234;7.268;2024-03-02T08:19:53;5.40;;;2.20;;
11078;SDS011;5592;49.234;7.268;2024-03-02T08:22:19;7.00;;;2.50;;
11078;SDS011;5592;49.234;7.268;2024-03-02T08:24:45;3.13;;;2.53;;
11078;SDS011;5592;49.234;7.268;2024-03-02T08:27:10;3.13;;;2.40;;
11078;SDS011;5592;49.234;7.268;2024-03-02T08:29:37;4.80;;;2.57;;
11078;SDS011;5592;49.234;7.268;2024-03-02T08:32:02;2.70;;;2.37;;
11078;SDS011;5592;49.234;7.268;2024-03-02T08:34:28;3.80;;;2.63;;
11078;SDS011;5592;49.234;7.268;2024-03-02T08:36:54;4.70;;;2.30;;
11078;SDS011;5592;49.234;7.268;2024-03-02T08:39:20;3.80;;;2.80;;
11078;SDS011;5592;49.234;7.268;2024-03-02T08:41:45;5.80;;;3.00;;
11078;SDS011;5592;49.234;7.268;2024-03-02T08:44:12;3.80;;;3.10;;
11078;SDS011;5592;49.234;7.268;2024-03-02T08:46:40;4.00;;;2.63;;
11078;SDS011;5592;49.234;7.268;2024-03-02T08:49:06;13.03;;;3.20;;
11078;SDS011;5592;49.234;7.268;2024-03-02T08:51:32;3.70;;;2.90;;
11078;SDS011;5592;49.234;7.268;2024-03-02T08:53:59;6.47;;;3.20;;
11078;SDS011;5592;49.234;7.268;2024-03-02T08:56:24;4.47;;;3.07;;
11078;SDS011;5592;49.234;7.268;2024-03-02T08:58:50;4.30;;;2.63;;
11078;SDS011;5592;49.234;7.268;2024-03-02T09:01:16;3.30;;;2.80;;
11078;SDS011;5592;49.234;7.268;2024-03-02T09:03:43;6.73;;;3.00;;
11078;SDS011;5592;49.234;7.268;2024-03-02T09:06:12;2.53;;;2.30;;
11078;SDS011;5592;49.234;7.268;2024-03-02T09:08:38;5.40;;;3.10;;
11078;SDS011;5592;49.234;7.268;2024-03-02T09:11:04;3.40;;;2.97;;
11078;SDS011;5592;49.234;7.268;2024-03-02T09:13:31;2.87;;;2.47;;
11078;SDS011;5592;49.234;7.268;2024-03-02T09:15:57;5.00;;;2.80;;
11078;SDS011;5592;49.234;7.268;2024-03-02T09:18:23;3.50;;;2.77;;
11078;SDS011;5592;49.234;7.268;2024-03-02T09:20:48;5.90;;;2.90;;
11078;SDS011;5592;49.234;7.268;2024-03-02T09:23:14;5.03;;;2.50;;
11078;SDS011;5592;49.234;7.268;2024-03-02T09:25:39;4.10;;;2.67;;
11078;SDS011;5592;49.234;7.268;2024-03-02T09:28:05;5.63;;;3.10;;
11078;SDS011;5592;49.234;7.268;2024-03-02T09:30:32;3.90;;;3.07;;
11078;SDS011;5592;49.234;7.268;2024-03-02T09:32:57;6.30;;;3.30;;
11078;SDS011;5592;49.234;7.268;2024-03-02T09:35:24;3.43;;;2.60;;
11078;SDS011;5592;49.234;7.268;2024-03-02T09:37:49;8.90;;;3.10;;
11078;SDS011;5592;49.234;7.268;2024-03-02T09:40:15;3.63;;;2.70;;
11078;SDS011;5592;49.234;7.268;2024-03-02T09:42:41;4.00;;;2.70;;
11078;SDS011;5592;49.234;7.268;2024-03-02T09:45:08;3.60;;;2.53;;
11078;SDS011;5592;49.234;7.268;2024-03-02T09:47:33;4.57;;;2.93;;
11078;SDS011;5592;49.234;7.268;2024-03-02T09:49:59;4.20;;;2.47;;
11078;SDS011;5592;49.234;7.268;2024-03-02T09:52:25;3.60;;;2.97;;
11078;SDS011;5592;49.234;7.268;2024-03-02T09:54:51;4.37;;;2.90;;
11078;SDS011;5592;49.234;7.268;2024-03-02T09:57:16;4.23;;;3.00;;
11078;SDS011;5592;49.234;7.268;2024-03-02T09:59:42;3.27;;;2.93;;
11078;SDS011;5592;49.234;7.268;2024-03-02T10:02:07;7.97;;;3.20;;
11078;SDS011;5592;49.234;7.268;2024-03-02T10:04:33;3.33;;;2.57;;
11078;SDS011;5592;49.234;7.268;2024-03-02T10:07:13;3.37;;;2.50;;
11078;SDS011;5592;49.234;7.268;2024-03-02T10:09:41;3.90;;;2.77;;
11078;SDS011;5592;49.234;7.268;2024-03-02T10:12:07;3.87;;;3.00;;
11078;SDS011;5592;49.234;7.268;2024-03-02T10:14:34;3.67;;;2.53;;
11078;SDS011;5592;49.234;7.268;2024-03-02T10:17:03;2.87;;;2.57;;
11078;SDS011;5592;49.234;7.268;2024-03-02T10:19:30;4.03;;;3.03;;
11078;SDS011;5592;49.234;7.268;2024-03-02T10:21:58;5.10;;;2.50;;
11078;SDS011;5592;49.234;7.268;2024-03-02T10:24:24;5.73;;;3.23;;
11078;SDS011;5592;49.234;7.268;2024-03-02T10:26:50;4.40;;;2.13;;
11078;SDS011;5592;49.234;7.268;2024-03-02T10:29:16;3.60;;;2.20;;
11078;SDS011;5592;49.234;7.268;2024-03-02T10:31:46;2.40;;;2.00;;
11078;SDS011;5592;49.234;7.268;2024-03-02T10:34:12;3.60;;;2.20;;
11078;SDS011;5592;49.234;7.268;2024-03-02T10:36:40;3.70;;;2.30;;
11078;SDS011;5592;49.234;7.268;2024-03-02T10:39:07;2.50;;;2.23;;
11078;SDS011;5592;49.234;7.268;2024-03-02T10:41:37;3.10;;;2.30;;
11078;SDS011;5592;49.234;7.268;2024-03-02T10:44:03;2.67;;;1.97;;
11078;SDS011;5592;49.234;7.268;2024-03-02T10:46:34;2.03;;;1.83;;
11078;SDS011;5592;49.234;7.268;2024-03-02T10:49:02;2.30;;;2.10;;
11078;SDS011;5592;49.234;7.268;2024-03-02T10:51:33;2.70;;;1.83;;
11078;SDS011;5592;49.234;7.268;2024-03-02T10:54:01;2.10;;;1.90;;
11078;SDS011;5592;49.234;7.268;2024-03-02T10:56:29;2.37;;;1.83;;
11078;SDS011;5592;49.234;7.268;2024-03-02T11:01:47;2.50;;;1.90;;
11078;SDS011;5592;49.234;7.268;2024-03-02T11:04:14;2.13;;;1.93;;
11078;SDS011;5592;49.234;7.268;2024-03-02T11:06:43;2.50;;;1.60;;
11078;SDS011;5592;49.234;7.268;2024-03-02T11:09:13;1.70;;;1.50;;
11078;SDS011;5592;49.234;7.268;2024-03-02T11:11:40;3.70;;;1.87;;
11078;SDS011;5592;49.234;7.268;2024-03-02T11:14:10;2.97;;;1.90;;
11078;SDS011;5592;49.234;7.268;2024-03-02T11:16:41;3.63;;;1.50;;
11078;SDS011;5592;49.234;7.268;2024-03-02T11:19:10;1.33;;;1.23;;
11078;SDS011;5592;49.234;7.268;2024-03-02T11:21:37;1.30;;;1.17;;
11078;SDS011;5592;49.234;7.268;2024-03-02T11:26:48;1.13;;;1.03;;
11078;SDS011;5592;49.234;7.268;2024-03-02T11:32:05;1.30;;;1.20;;
11078;SDS011;5592;49.234;7.268;2024-03-02T11:34:31;1.97;;;1.30;;
11078;SDS011;5592;49.234;7.268;2024-03-02T11:36:59;1.83;;;1.23;;
11078;SDS011;5592;49.234;7.268;2024-03-02T11:39:27;2.07;;;1.37;;
11078;SDS011;5592;49.234;7.268;2024-03-02T11:41:53;3.03;;;1.40;;
11078;SDS011;5592;49.234;7.268;2024-03-02T11:44:20;1.40;;;1.27;;
11078;SDS011;5592;49.234;7.268;2024-03-02T11:46:46;1.57;;;1.30;;
11078;SDS011;5592;49.234;7.268;2024-03-02T11:49:31;1.50;;;1.20;;
11078;SDS011;5592;49.234;7.268;2024-03-02T11:52:09;1.97;;;1.10;;
11078;SDS011;5592;49.234;7.268;2024-03-02T11:54:36;3.20;;;1.50;;
11078;SDS011;5592;49.234;7.268;2024-03-02T11:57:11;1.73;;;1.40;;
11078;SDS011;5592;49.234;7.268;2024-03-02T11:59:36;3.57;;;1.43;;
11078;SDS011;5592;49.234;7.268;2024-03-02T12:02:02;2.87;;;1.37;;
11078;SDS011;5592;49.234;7.268;2024-03-02T12:04:28;2.07;;;1.50;;
11078;SDS011;5592;49.234;7.268;2024-03-02T12:06:58;5.30;;;1.50;;
11078;SDS011;5592;49.234;7.268;2024-03-02T12:09:26;1.33;;;1.13;;
11078;SDS011;5592;49.234;7.268;2024-03-02T12:12:05;1.90;;;1.30;;
11078;SDS011;5592;49.234;7.268;2024-03-02T12:14:31;1.27;;;1.10;;
11078;SDS011;5592;49.234;7.268;2024-03-02T12:16:58;1.20;;;1.10;;
11078;SDS011;5592;49.234;7.268;2024-03-02T12:19:24;2.27;;;1.17;;
11078;SDS011;5592;49.234;7.268;2024-03-02T12:21:51;2.03;;;1.50;;
11078;SDS011;5592;49.234;7.268;2024-03-02T12:24:17;1.27;;;1.17;;
11078;SDS011;5592;49.234;7.268;2024-03-02T12:26:43;5.47;;;1.37;;
11078;SDS011;5592;49.234;7.268;2024-03-02T12:29:09;1.27;;;1.00;;
11078;SDS011;5592;49.234;7.268;2024-03-02T12:31:35;1.10;;;1.00;;
11078;SDS011;5592;49.234;7.268;2024-03-02T12:34:00;2.83;;;1.10;;
11078;SDS011;5592;49.234;7.268;2024-03-02T12:36:27;1.23;;;0.90;;
11078;SDS011;5592;49.234;7.268;2024-03-02T12:38:53;1.97;;;1.13;;
11078;SDS011;5592;49.234;7.268;2024-03-02T12:41:19;1.87;;;0.90;;
11078;SDS011;5592;49.234;7.268;2024-03-02T12:43:45;1.63;;;1.10;;
11078;SDS011;5592;49.234;7.268;2024-03-02T12:46:11;1.53;;;1.43;;
11078;SDS011;5592;49.234;7.268;2024-03-02T12:48:37;2.70;;;1.50;;
11078;SDS011;5592;49.234;7.268;2024-03-02T12:51:07;2.30;;;1.10;;
11078;SDS011;5592;49.234;7.268;2024-03-02T12:53:32;1.00;;;0.90;;
11078;SDS011;5592;49.234;7.268;2024-03-02T12:55:58;5.17;;;1.17;;
11078;SDS011;5592;49.234;7.268;2024-03-02T12:58:24;0.80;;;0.70;;
11078;SDS011;5592;49.234;7.268;2024-03-02T13:00:55;1.40;;;1.20;;
11078;SDS011;5592;49.234;7.268;2024-03-02T13:03:37;1.57;;;1.10;;
11078;SDS011;5592;49.234;7.268;2024-03-02T13:06:04;1.50;;;1.03;;
11078;SDS011;5592;49.234;7.268;2024-03-02T13:08:30;1.37;;;1.10;;
11078;SDS011;5592;49.234;7.268;2024-03-02T13:10:56;1.30;;;1.20;;
11078;SDS011;5592;49.234;7.268;2024-03-02T13:13:22;2.10;;;1.30;;
11078;SDS011;5592;49.234;7.268;2024-03-02T13:15:48;1.70;;;1.23;;
11078;SDS011;5592;49.234;7.268;2024-03-02T13:18:13;1.10;;;1.00;;
11078;SDS011;5592;49.234;7.268;2024-03-02T13:20:39;1.70;;;1.27;;
11078;SDS011;5592;49.234;7.268;2024-03-02T13:23:05;2.63;;;1.23;;
11078;SDS011;5592;49.234;7.268;2024-03-02T13:25:31;1.80;;;1.17;;
11078;SDS011;5592;49.234;7.268;2024-03-02T13:27:57;1.87;;;1.40;;
11078;SDS011;5592;49.234;7.268;2024-03-02T13:30:23;1.13;;;1.00;;
11078;SDS011;5592;49.234;7.268;2024-03-02T13:32:48;2.60;;;1.40;;
11078;SDS011;5592;49.234;7.268;2024-03-02T13:35:14;2.47;;;1.23;;
11078;SDS011;5592;49.234;7.268;2024-03-02T13:37:39;1.67;;;1.10;;
11078;SDS011;5592;49.234;7.268;2024-03-02T13:40:05;2.50;;;1.43;;
11078;SDS011;5592;49.234;7.268;2024-03-02T13:42:31;2.53;;;1.30;;
11078;SDS011;5592;49.234;7.268;2024-03-02T13:44:57;2.00;;;1.20;;
11078;SDS011;5592;49.234;7.268;2024-03-02T13:47:23;2.10;;;1.20;;
11078;SDS011;5592;49.234;7.268;2024-03-02T13:49:48;1.47;;;1.20;;
11078;SDS011;5592;49.234;7.268;2024-03-02T13:52:14;3.07;;;1.17;;
11078;SDS011;5592;49.234;7.268;2024-03-02T13:54:41;3.53;;;1.30;;
11078;SDS011;5592;49.234;7.268;2024-03-02T13:57:09;3.20;;;1.27;;
11078;SDS011;5592;49.234;7.268;2024-03-02T13:59:35;1.87;;;1.27;;
11078;SDS011;5592;49.234;7.268;2024-03-02T14:02:02;2.50;;;1.10;;
11078;SDS011;5592;49.234;7.268;2024-03-02T14:04:31;1.77;;;1.50;;
11078;SDS011;5592;49.234;7.268;2024-03-02T14:06:58;1.50;;;1.40;;
11078;SDS011;5592;49.234;7.268;2024-03-02T14:09:24;1.53;;;1.37;;
11078;SDS011;5592;49.234;7.268;2024-03-02T14:11:50;1.37;;;1.27;;
11078;SDS011;5592;49.234;7.268;2024-03-02T14:14:16;2.37;;;1.50;;
11078;SDS011;5592;49.234;7.268;2024-03-02T14:16:42;1.93;;;1.60;;
11078;SDS011;5592;49.234;7.268;2024-03-02T14:19:09;1.50;;;1.40;;
11078;SDS011;5592;49.234;7.268;2024-03-02T14:21:36;2.00;;;1.27;;
11078;SDS011;5592;49.234;7.268;2024-03-02T14:24:02;1.37;;;1.13;;
11078;SDS011;5592;49.234;7.268;2024-03-02T14:26:27;1.37;;;1.27;;
11078;SDS011;5592;49.234;7.268;2024-03-02T14:28:53;2.23;;;1.63;;
11078;SDS011;5592;49.234;7.268;2024-03-02T14:31:19;3.17;;;1.10;;
11078;SDS011;5592;49.234;7.268;2024-03-02T14:33:45;1.20;;;1.10;;
11078;SDS011;5592;49.234;7.268;2024-03-02T14:36:11;1.40;;;1.30;;
11078;SDS011;5592;49.234;7.268;2024-03-02T14:38:37;1.40;;;1.30;;
11078;SDS011;5592;49.234;7.268;2024-03-02T14:41:03;1.70;;;1.10;;
11078;SDS011;5592;49.234;7.268;2024-03-02T14:43:29;1.13;;;1.03;;
11078;SDS011;5592;49.234;7.268;2024-03-02T14:45:55;3.87;;;1.10;;
11078;SDS011;5592;49.234;7.268;2024-03-02T14:48:21;1.70;;;1.13;;
11078;SDS011;5592;49.234;7.268;2024-03-02T14:50:47;1.33;;;1.20;;
11078;SDS011;5592;49.234;7.268;2024-03-02T14:53:14;1.60;;;1.00;;
11078;SDS011;5592;49.234;7.268;2024-03-02T14:55:43;1.67;;;1.57;;
11078;SDS011;5592;49.234;7.268;2024-03-02T14:58:08;2.23;;;1.30;;
11078;SDS011;5592;49.234;7.268;2024-03-02T15:00:34;1.30;;;1.20;;
11078;SDS011;5592;49.234;7.268;2024-03-02T15:03:00;1.40;;;1.30;;
11078;SDS011;5592;49.234;7.268;2024-03-02T15:05:26;1.50;;;1.23;;